Flight Track Log - Related Links

Times and Time Zones

All times are in EDT time to prevent confusion due to time zone crossing. See the N447SC flight status page for this flight to view local times or setup timezone preferences in your user account.

Time Position Orientation Groundspeed Altitude Reporting Facility
EDT Latitude Longitude Course Direction KTS MPH feet Rate Location/Type
Sun 05:48:11 PM 38.5667 -90.1167 21° North 98 113 1,700  Level Gateway (St. Louis) TRACON
Sun 05:49:11 PM 38.5667 -90.0833 90° East 98 113 2,500 842 Climbing Gateway (St. Louis) TRACON
Sun 05:50:05 PM 38.5833 -90.0500 57° Northeast 112 129 3,300 833 Climbing Gateway (St. Louis) TRACON
Sun 05:50:59 PM 38.6000 -90.0333 38° Northeast 114 131 4,000 778 Climbing Gateway (St. Louis) TRACON
Sun 05:51:53 PM 38.6333 -90.0167 21° North 132 152 4,700 720 Climbing Gateway (St. Louis) TRACON
Sun 05:52:14 PM 38.6375 -90.0203 326° Northwest 118 136 4,900 651 Climbing Kansas City Center
Sun 05:53:00 PM 38.7917 -90.0041 21° North  Level FlightAware Approximate
Sun 05:53:16 PM 38.6800 -89.9881 31° Northeast 136 157 5,600  Level Kansas City Center
Sun 05:54:18 PM 38.7167 -89.9647 26° Northeast 143 165 6,500 683 Climbing Kansas City Center
Sun 05:55:19 PM 38.7547 -89.9467 20° North 145 167 7,000 195 Climbing Kansas City Center
Sun 05:56:21 PM 38.8025 -89.9189 24° Northeast 181 208 6,900 -48 Descending Kansas City Center
Sun 05:57:23 PM 38.8519 -89.8883 26° Northeast 195 224 6,900 48 Level Kansas City Center
Sun 05:58:25 PM 38.9164 -89.8553 22° Northeast 206 237 7,000  Climbing Kansas City Center
Sun 05:59:27 PM 38.9672 -89.8231 26° Northeast 203 234 6,900  Descending Kansas City Center
Sun 06:00:28 PM 39.0244 -89.7919 23° Northeast 205 236 7,000 49 Climbing Kansas City Center
Sun 06:01:30 PM 39.0764 -89.7628 24° Northeast 204 235 7,000 -48 Level Kansas City Center
Sun 06:02:32 PM 39.1300 -89.7322 24° Northeast 210 242 6,900  Descending Kansas City Center
Sun 06:03:33 PM 39.1811 -89.7017 25° Northeast 206 237 7,000  Climbing Kansas City Center
Sun 06:04:35 PM 39.2275 -89.6722 26° Northeast 204 235 6,900  Descending Kansas City Center
Sun 06:05:37 PM 39.2900 -89.6353 25° Northeast 205 236 7,000  Climbing Kansas City Center
Sun 06:06:39 PM 39.3408 -89.6014 27° Northeast 206 237 6,900  Descending Kansas City Center
Sun 06:07:40 PM 39.3928 -89.5739 22° Northeast 204 235 7,000 49 Climbing Kansas City Center
Sun 06:08:42 PM 39.4456 -89.5431 24° Northeast 206 237 7,000 -48 Level Kansas City Center
Sun 06:09:44 PM 39.4964 -89.5094 27° Northeast 206 237 6,900  Descending Kansas City Center
Sun 06:10:45 PM 39.5467 -89.4781 26° Northeast 203 234 7,000  Climbing Kansas City Center
Sun 06:11:47 PM 39.5981 -89.4472 25° Northeast 204 235 6,900 -48 Descending Kansas City Center
Sun 06:12:49 PM 39.6600 -89.4097 25° Northeast 204 235 6,900  Level Kansas City Center
Sun 06:13:50 PM 39.7056 -89.3825 25° Northeast 204 235 6,900  Level Kansas City Center
Sun 06:14:52 PM 39.7561 -89.3506 26° Northeast 202 232 6,900 -194 Level Kansas City Center
Sun 06:15:54 PM 39.8175 -89.3156 24° Northeast 202 232 6,500 -387 Descending Kansas City Center
Sun 06:16:56 PM 39.8692 -89.2872 23° Northeast 201 231 6,100 -390 Descending Kansas City Center
Sun 06:17:57 PM 39.9183 -89.2575 25° Northeast 198 228 5,700 -341 Descending Kansas City Center
Sun 06:18:59 PM 39.9694 -89.2294 23° Northeast 198 228 5,400 -339 Descending Kansas City Center
Sun 06:20:01 PM 40.0178 -89.2017 24° Northeast 193 222 5,000 -439 Descending Kansas City Center
Sun 06:21:02 PM 40.0642 -89.1689 28° Northeast 190 219 4,500 -439 Descending Kansas City Center
Sun 06:22:04 PM 40.1122 -89.1378 26° Northeast 191 220 4,100 -283 Descending Kansas City Center
Sun 06:22:48 PM 40.1506 -89.1136 26° Northeast 191 220 4,000 -57 Descending Chicago Center
Sun 06:23:50 PM 40.1967 -89.0858 25° Northeast 189 217 4,000 -48 Level Chicago Center
Sun 06:24:52 PM 40.2431 -89.0589 24° Northeast 186 214 3,900 -48 Descending Chicago Center
Sun 06:25:54 PM 40.3039 -89.0581 North 186 214 3,900  Level Chicago Center
Sun 06:26:55 PM 40.3469 -89.0836 336° Northwest 184 212 3,900  Level Chicago Center
Sun 06:27:57 PM 40.3753 -89.1344 306° West 183 211 3,900 -97 Level Chicago Center
Sun 06:28:59 PM 40.4233 -89.1172 15° North 185 213 3,700 -339 Descending Chicago Center
Sun 06:30:01 PM 40.4653 -89.0772 36° Northeast 186 214 3,200 -532 Descending Chicago Center
Sun 06:31:03 PM 40.4947 -89.0297 51° Northeast 178 205 2,600 -634 Descending Chicago Center
Sun 06:32:04 PM 40.4958 -88.9778 88° East 160 184 1,900 -683 Descending Chicago Center
Sun 06:33:06 PM 40.4861 -88.9347 107° East 134 154 1,200 -677 Descending Chicago Center

Login

Don't have an account? Register now (free) for customized features, flight alerts, and more!